sensor_id;sensor_type;location;lat;lon;timestamp;P1;durP1;ratioP1;P2;durP2;ratioP2
11743;SDS011;5929;51.906;7.674;2022-09-03T00:01:24;3.58;;;1.17;;
11743;SDS011;5929;51.906;7.674;2022-09-03T00:03:54;2.65;;;1.00;;
11743;SDS011;5929;51.906;7.674;2022-09-03T00:06:25;3.53;;;0.73;;
11743;SDS011;5929;51.906;7.674;2022-09-03T00:08:57;5.88;;;0.90;;
11743;SDS011;5929;51.906;7.674;2022-09-03T00:11:30;2.67;;;0.80;;
11743;SDS011;5929;51.906;7.674;2022-09-03T00:14:06;2.85;;;0.80;;
11743;SDS011;5929;51.906;7.674;2022-09-03T00:16:39;3.50;;;0.90;;
11743;SDS011;5929;51.906;7.674;2022-09-03T00:19:09;3.40;;;1.08;;
11743;SDS011;5929;51.906;7.674;2022-09-03T00:21:40;5.40;;;1.00;;
11743;SDS011;5929;51.906;7.674;2022-09-03T00:24:13;6.30;;;1.40;;
11743;SDS011;5929;51.906;7.674;2022-09-03T00:26:45;4.72;;;0.90;;
11743;SDS011;5929;51.906;7.674;2022-09-03T00:29:18;3.28;;;0.82;;
11743;SDS011;5929;51.906;7.674;2022-09-03T00:31:52;4.97;;;0.93;;
11743;SDS011;5929;51.906;7.674;2022-09-03T00:34:24;6.50;;;0.80;;
11743;SDS011;5929;51.906;7.674;2022-09-03T00:36:56;3.72;;;0.90;;
11743;SDS011;5929;51.906;7.674;2022-09-03T00:39:25;3.47;;;0.93;;
11743;SDS011;5929;51.906;7.674;2022-09-03T00:41:56;4.63;;;0.88;;
11743;SDS011;5929;51.906;7.674;2022-09-03T00:44:37;2.97;;;0.90;;
11743;SDS011;5929;51.906;7.674;2022-09-03T00:47:15;5.82;;;1.00;;
11743;SDS011;5929;51.906;7.674;2022-09-03T00:49:54;5.10;;;1.00;;
11743;SDS011;5929;51.906;7.674;2022-09-03T00:52:33;4.30;;;0.90;;
11743;SDS011;5929;51.906;7.674;2022-09-03T00:55:21;2.95;;;0.85;;
11743;SDS011;5929;51.906;7.674;2022-09-03T00:57:58;3.15;;;1.00;;
11743;SDS011;5929;51.906;7.674;2022-09-03T01:00:38;4.78;;;0.95;;
11743;SDS011;5929;51.906;7.674;2022-09-03T01:03:08;2.10;;;0.60;;
11743;SDS011;5929;51.906;7.674;2022-09-03T01:08:31;3.40;;;0.73;;
11743;SDS011;5929;51.906;7.674;2022-09-03T01:11:14;3.10;;;0.95;;
11743;SDS011;5929;51.906;7.674;2022-09-03T01:13:53;4.20;;;1.02;;
11743;SDS011;5929;51.906;7.674;2022-09-03T01:16:30;4.03;;;0.88;;
11743;SDS011;5929;51.906;7.674;2022-09-03T01:19:04;2.25;;;0.70;;
11743;SDS011;5929;51.906;7.674;2022-09-03T01:21:54;2.95;;;0.80;;
11743;SDS011;5929;51.906;7.674;2022-09-03T01:24:45;3.13;;;0.70;;
11743;SDS011;5929;51.906;7.674;2022-09-03T01:27:39;3.25;;;0.93;;
11743;SDS011;5929;51.906;7.674;2022-09-03T01:30:19;3.08;;;0.80;;
11743;SDS011;5929;51.906;7.674;2022-09-03T01:32:50;4.85;;;0.98;;
11743;SDS011;5929;51.906;7.674;2022-09-03T01:35:26;3.35;;;0.80;;
11743;SDS011;5929;51.906;7.674;2022-09-03T01:38:06;5.40;;;1.02;;
11743;SDS011;5929;51.906;7.674;2022-09-03T01:40:45;2.90;;;0.80;;
11743;SDS011;5929;51.906;7.674;2022-09-03T01:43:28;6.38;;;1.10;;
11743;SDS011;5929;51.906;7.674;2022-09-03T01:46:05;4.78;;;1.00;;
11743;SDS011;5929;51.906;7.674;2022-09-03T01:48:42;2.15;;;0.80;;
11743;SDS011;5929;51.906;7.674;2022-09-03T01:51:18;6.57;;;1.23;;
11743;SDS011;5929;51.906;7.674;2022-09-03T01:54:02;2.63;;;0.88;;
11743;SDS011;5929;51.906;7.674;2022-09-03T01:56:50;3.35;;;1.00;;
11743;SDS011;5929;51.906;7.674;2022-09-03T01:59:33;1.88;;;0.68;;
11743;SDS011;5929;51.906;7.674;2022-09-03T02:02:09;3.00;;;0.90;;
11743;SDS011;5929;51.906;7.674;2022-09-03T02:04:53;4.18;;;1.23;;
11743;SDS011;5929;51.906;7.674;2022-09-03T02:07:24;4.20;;;1.17;;
11743;SDS011;5929;51.906;7.674;2022-09-03T02:09:53;3.78;;;0.73;;
11743;SDS011;5929;51.906;7.674;2022-09-03T02:12:20;2.58;;;0.77;;
11743;SDS011;5929;51.906;7.674;2022-09-03T02:14:47;4.43;;;0.82;;
11743;SDS011;5929;51.906;7.674;2022-09-03T02:17:15;3.85;;;0.88;;
11743;SDS011;5929;51.906;7.674;2022-09-03T02:19:43;2.58;;;0.90;;
11743;SDS011;5929;51.906;7.674;2022-09-03T02:22:09;2.47;;;0.90;;
11743;SDS011;5929;51.906;7.674;2022-09-03T02:24:38;4.47;;;1.02;;
11743;SDS011;5929;51.906;7.674;2022-09-03T02:27:05;2.92;;;1.05;;
11743;SDS011;5929;51.906;7.674;2022-09-03T02:29:32;4.25;;;0.82;;
11743;SDS011;5929;51.906;7.674;2022-09-03T02:31:59;2.45;;;0.77;;
11743;SDS011;5929;51.906;7.674;2022-09-03T02:34:27;4.60;;;1.00;;
11743;SDS011;5929;51.906;7.674;2022-09-03T02:36:55;4.72;;;1.30;;
11743;SDS011;5929;51.906;7.674;2022-09-03T02:39:22;6.72;;;1.00;;
11743;SDS011;5929;51.906;7.674;2022-09-03T02:41:49;4.10;;;1.08;;
11743;SDS011;5929;51.906;7.674;2022-09-03T02:44:19;2.50;;;0.77;;
11743;SDS011;5929;51.906;7.674;2022-09-03T02:46:53;2.35;;;0.70;;
11743;SDS011;5929;51.906;7.674;2022-09-03T02:49:23;6.05;;;0.90;;
11743;SDS011;5929;51.906;7.674;2022-09-03T02:51:51;2.83;;;0.90;;
11743;SDS011;5929;51.906;7.674;2022-09-03T02:54:22;4.57;;;1.08;;
11743;SDS011;5929;51.906;7.674;2022-09-03T02:56:50;4.00;;;0.98;;
11743;SDS011;5929;51.906;7.674;2022-09-03T02:59:17;5.63;;;0.90;;
11743;SDS011;5929;51.906;7.674;2022-09-03T03:01:46;2.80;;;0.82;;
11743;SDS011;5929;51.906;7.674;2022-09-03T03:04:13;3.67;;;0.77;;
11743;SDS011;5929;51.906;7.674;2022-09-03T03:06:41;3.95;;;1.05;;
11743;SDS011;5929;51.906;7.674;2022-09-03T03:09:09;2.67;;;0.95;;
11743;SDS011;5929;51.906;7.674;2022-09-03T03:11:36;2.00;;;0.80;;
11743;SDS011;5929;51.906;7.674;2022-09-03T03:14:04;3.25;;;0.85;;
11743;SDS011;5929;51.906;7.674;2022-09-03T03:16:31;3.63;;;1.02;;
11743;SDS011;5929;51.906;7.674;2022-09-03T03:18:58;2.72;;;0.80;;
11743;SDS011;5929;51.906;7.674;2022-09-03T03:21:25;4.13;;;0.95;;
11743;SDS011;5929;51.906;7.674;2022-09-03T03:23:52;4.10;;;0.93;;
11743;SDS011;5929;51.906;7.674;2022-09-03T03:26:21;3.20;;;0.95;;
11743;SDS011;5929;51.906;7.674;2022-09-03T03:28:49;3.83;;;1.00;;
11743;SDS011;5929;51.906;7.674;2022-09-03T03:31:21;5.82;;;1.02;;
11743;SDS011;5929;51.906;7.674;2022-09-03T03:33:49;4.28;;;0.93;;
11743;SDS011;5929;51.906;7.674;2022-09-03T03:36:17;2.67;;;0.80;;
11743;SDS011;5929;51.906;7.674;2022-09-03T03:38:44;2.63;;;0.80;;
11743;SDS011;5929;51.906;7.674;2022-09-03T03:41:12;5.93;;;1.02;;
11743;SDS011;5929;51.906;7.674;2022-09-03T03:43:42;2.92;;;0.77;;
11743;SDS011;5929;51.906;7.674;2022-09-03T03:46:10;2.97;;;1.05;;
11743;SDS011;5929;51.906;7.674;2022-09-03T03:48:38;2.65;;;0.93;;
11743;SDS011;5929;51.906;7.674;2022-09-03T03:51:06;3.72;;;0.90;;
11743;SDS011;5929;51.906;7.674;2022-09-03T03:53:35;4.63;;;0.98;;
11743;SDS011;5929;51.906;7.674;2022-09-03T03:56:04;3.42;;;0.90;;
11743;SDS011;5929;51.906;7.674;2022-09-03T03:58:33;2.90;;;0.93;;
11743;SDS011;5929;51.906;7.674;2022-09-03T04:01:06;3.17;;;0.80;;
11743;SDS011;5929;51.906;7.674;2022-09-03T04:03:35;6.93;;;1.27;;
11743;SDS011;5929;51.906;7.674;2022-09-03T04:06:02;5.32;;;1.15;;
11743;SDS011;5929;51.906;7.674;2022-09-03T04:08:32;3.88;;;0.93;;
11743;SDS011;5929;51.906;7.674;2022-09-03T04:11:01;4.00;;;0.90;;
11743;SDS011;5929;51.906;7.674;2022-09-03T04:13:30;3.45;;;1.10;;
11743;SDS011;5929;51.906;7.674;2022-09-03T04:16:02;3.67;;;0.90;;
11743;SDS011;5929;51.906;7.674;2022-09-03T04:18:31;3.35;;;1.00;;
11743;SDS011;5929;51.906;7.674;2022-09-03T04:20:59;5.80;;;1.00;;
11743;SDS011;5929;51.906;7.674;2022-09-03T04:23:29;2.22;;;0.80;;
11743;SDS011;5929;51.906;7.674;2022-09-03T04:25:56;3.95;;;0.90;;
11743;SDS011;5929;51.906;7.674;2022-09-03T04:28:23;2.88;;;0.95;;
11743;SDS011;5929;51.906;7.674;2022-09-03T04:30:50;3.20;;;1.00;;
11743;SDS011;5929;51.906;7.674;2022-09-03T04:33:18;3.40;;;1.15;;
11743;SDS011;5929;51.906;7.674;2022-09-03T04:35:47;5.60;;;1.00;;
11743;SDS011;5929;51.906;7.674;2022-09-03T04:38:14;2.20;;;0.82;;
11743;SDS011;5929;51.906;7.674;2022-09-03T04:40:41;3.38;;;1.00;;
11743;SDS011;5929;51.906;7.674;2022-09-03T04:43:08;6.07;;;1.05;;
11743;SDS011;5929;51.906;7.674;2022-09-03T04:45:35;1.92;;;0.73;;
11743;SDS011;5929;51.906;7.674;2022-09-03T04:48:02;4.00;;;0.90;;
11743;SDS011;5929;51.906;7.674;2022-09-03T04:50:31;4.55;;;0.98;;
11743;SDS011;5929;51.906;7.674;2022-09-03T04:53:01;3.97;;;1.20;;
11743;SDS011;5929;51.906;7.674;2022-09-03T04:55:31;2.97;;;1.05;;
11743;SDS011;5929;51.906;7.674;2022-09-03T04:57:59;2.75;;;1.00;;
11743;SDS011;5929;51.906;7.674;2022-09-03T05:00:26;4.13;;;1.10;;
11743;SDS011;5929;51.906;7.674;2022-09-03T05:02:53;5.63;;;1.27;;
11743;SDS011;5929;51.906;7.674;2022-09-03T05:05:20;2.72;;;1.02;;
11743;SDS011;5929;51.906;7.674;2022-09-03T05:07:47;3.67;;;1.00;;
11743;SDS011;5929;51.906;7.674;2022-09-03T05:10:15;2.85;;;0.90;;
11743;SDS011;5929;51.906;7.674;2022-09-03T05:12:44;3.58;;;0.90;;
11743;SDS011;5929;51.906;7.674;2022-09-03T05:15:12;4.03;;;0.85;;
11743;SDS011;5929;51.906;7.674;2022-09-03T05:17:39;2.90;;;0.95;;
11743;SDS011;5929;51.906;7.674;2022-09-03T05:20:06;3.45;;;1.10;;
11743;SDS011;5929;51.906;7.674;2022-09-03T05:22:34;6.13;;;1.27;;
11743;SDS011;5929;51.906;7.674;2022-09-03T05:25:01;3.75;;;1.20;;
11743;SDS011;5929;51.906;7.674;2022-09-03T05:27:29;3.60;;;1.00;;
11743;SDS011;5929;51.906;7.674;2022-09-03T05:29:57;3.10;;;0.88;;
11743;SDS011;5929;51.906;7.674;2022-09-03T05:32:24;3.05;;;1.13;;
11743;SDS011;5929;51.906;7.674;2022-09-03T05:34:52;3.15;;;1.08;;
11743;SDS011;5929;51.906;7.674;2022-09-03T05:37:20;5.15;;;1.00;;
11743;SDS011;5929;51.906;7.674;2022-09-03T05:39:47;3.15;;;1.05;;
11743;SDS011;5929;51.906;7.674;2022-09-03T05:42:14;4.97;;;1.20;;
11743;SDS011;5929;51.906;7.674;2022-09-03T05:44:43;8.63;;;1.30;;
11743;SDS011;5929;51.906;7.674;2022-09-03T05:47:10;4.72;;;1.10;;
11743;SDS011;5929;51.906;7.674;2022-09-03T05:49:36;3.47;;;1.00;;
11743;SDS011;5929;51.906;7.674;2022-09-03T05:52:04;3.95;;;1.10;;
11743;SDS011;5929;51.906;7.674;2022-09-03T05:54:30;4.45;;;1.17;;
11743;SDS011;5929;51.906;7.674;2022-09-03T05:56:57;7.15;;;1.20;;
11743;SDS011;5929;51.906;7.674;2022-09-03T05:59:25;6.00;;;1.00;;
11743;SDS011;5929;51.906;7.674;2022-09-03T06:01:53;3.40;;;1.10;;
11743;SDS011;5929;51.906;7.674;2022-09-03T06:04:20;3.60;;;1.15;;
11743;SDS011;5929;51.906;7.674;2022-09-03T06:06:47;5.72;;;1.30;;
11743;SDS011;5929;51.906;7.674;2022-09-03T06:09:15;3.88;;;1.40;;
11743;SDS011;5929;51.906;7.674;2022-09-03T06:11:43;6.53;;;1.25;;
11743;SDS011;5929;51.906;7.674;2022-09-03T06:14:13;3.63;;;1.15;;
11743;SDS011;5929;51.906;7.674;2022-09-03T06:16:41;4.88;;;1.42;;
11743;SDS011;5929;51.906;7.674;2022-09-03T06:19:10;3.72;;;0.90;;
11743;SDS011;5929;51.906;7.674;2022-09-03T06:21:39;5.25;;;1.30;;
11743;SDS011;5929;51.906;7.674;2022-09-03T06:24:08;4.05;;;1.20;;
11743;SDS011;5929;51.906;7.674;2022-09-03T06:26:36;2.67;;;1.00;;
11743;SDS011;5929;51.906;7.674;2022-09-03T06:29:03;7.40;;;1.08;;
11743;SDS011;5929;51.906;7.674;2022-09-03T06:31:30;4.63;;;1.40;;
11743;SDS011;5929;51.906;7.674;2022-09-03T06:33:57;3.35;;;0.90;;
11743;SDS011;5929;51.906;7.674;2022-09-03T06:36:26;4.60;;;1.20;;
11743;SDS011;5929;51.906;7.674;2022-09-03T06:38:53;4.80;;;1.10;;
11743;SDS011;5929;51.906;7.674;2022-09-03T06:41:23;3.72;;;1.23;;
11743;SDS011;5929;51.906;7.674;2022-09-03T06:43:52;5.63;;;1.33;;
11743;SDS011;5929;51.906;7.674;2022-09-03T06:46:22;4.97;;;1.25;;
11743;SDS011;5929;51.906;7.674;2022-09-03T06:48:49;3.55;;;1.00;;
11743;SDS011;5929;51.906;7.674;2022-09-03T06:51:17;3.28;;;1.15;;
11743;SDS011;5929;51.906;7.674;2022-09-03T06:53:47;3.30;;;1.02;;
11743;SDS011;5929;51.906;7.674;2022-09-03T06:56:16;3.70;;;1.10;;
11743;SDS011;5929;51.906;7.674;2022-09-03T06:58:51;6.18;;;1.48;;
11743;SDS011;5929;51.906;7.674;2022-09-03T07:01:20;5.82;;;1.40;;
11743;SDS011;5929;51.906;7.674;2022-09-03T07:03:51;5.35;;;1.20;;
11743;SDS011;5929;51.906;7.674;2022-09-03T07:06:21;3.65;;;1.10;;
11743;SDS011;5929;51.906;7.674;2022-09-03T07:08:50;3.40;;;1.30;;
11743;SDS011;5929;51.906;7.674;2022-09-03T07:11:19;3.55;;;1.33;;
11743;SDS011;5929;51.906;7.674;2022-09-03T07:13:50;4.80;;;1.23;;
11743;SDS011;5929;51.906;7.674;2022-09-03T07:16:19;5.20;;;1.23;;
11743;SDS011;5929;51.906;7.674;2022-09-03T07:18:47;3.80;;;1.33;;
11743;SDS011;5929;51.906;7.674;2022-09-03T07:21:15;6.72;;;1.25;;
11743;SDS011;5929;51.906;7.674;2022-09-03T07:23:44;6.55;;;1.27;;
11743;SDS011;5929;51.906;7.674;2022-09-03T07:26:13;4.82;;;1.30;;
11743;SDS011;5929;51.906;7.674;2022-09-03T07:28:42;5.40;;;1.40;;
11743;SDS011;5929;51.906;7.674;2022-09-03T07:31:12;3.75;;;1.38;;
11743;SDS011;5929;51.906;7.674;2022-09-03T07:33:43;5.95;;;1.63;;
11743;SDS011;5929;51.906;7.674;2022-09-03T07:36:10;3.55;;;1.20;;
11743;SDS011;5929;51.906;7.674;2022-09-03T07:38:39;4.25;;;1.60;;
11743;SDS011;5929;51.906;7.674;2022-09-03T07:41:09;5.50;;;1.40;;
11743;SDS011;5929;51.906;7.674;2022-09-03T07:43:38;5.00;;;1.50;;
11743;SDS011;5929;51.906;7.674;2022-09-03T07:46:07;6.40;;;1.60;;
11743;SDS011;5929;51.906;7.674;2022-09-03T07:48:37;3.75;;;1.42;;
11743;SDS011;5929;51.906;7.674;2022-09-03T07:51:05;3.63;;;1.40;;
11743;SDS011;5929;51.906;7.674;2022-09-03T07:53:32;5.35;;;1.40;;
11743;SDS011;5929;51.906;7.674;2022-09-03T07:56:03;6.15;;;1.30;;
11743;SDS011;5929;51.906;7.674;2022-09-03T07:58:31;4.05;;;1.70;;
11743;SDS011;5929;51.906;7.674;2022-09-03T08:01:04;3.90;;;1.27;;
11743;SDS011;5929;51.906;7.674;2022-09-03T08:03:32;3.20;;;1.13;;
11743;SDS011;5929;51.906;7.674;2022-09-03T08:06:00;4.00;;;1.30;;
11743;SDS011;5929;51.906;7.674;2022-09-03T08:08:27;6.07;;;1.15;;
11743;SDS011;5929;51.906;7.674;2022-09-03T08:11:01;4.45;;;1.17;;
11743;SDS011;5929;51.906;7.674;2022-09-03T08:13:29;2.55;;;1.02;;
11743;SDS011;5929;51.906;7.674;2022-09-03T08:15:58;2.80;;;1.10;;
11743;SDS011;5929;51.906;7.674;2022-09-03T08:18:26;3.08;;;0.90;;
11743;SDS011;5929;51.906;7.674;2022-09-03T08:21:02;3.30;;;1.30;;
11743;SDS011;5929;51.906;7.674;2022-09-03T08:23:31;3.22;;;1.10;;
11743;SDS011;5929;51.906;7.674;2022-09-03T08:25:58;4.00;;;1.10;;
11743;SDS011;5929;51.906;7.674;2022-09-03T08:28:25;5.90;;;1.15;;
11743;SDS011;5929;51.906;7.674;2022-09-03T08:30:52;5.43;;;1.20;;
11743;SDS011;5929;51.906;7.674;2022-09-03T08:33:19;5.72;;;1.17;;
11743;SDS011;5929;51.906;7.674;2022-09-03T08:36:03;5.00;;;1.27;;
11743;SDS011;5929;51.906;7.674;2022-09-03T08:38:31;4.47;;;1.08;;
11743;SDS011;5929;51.906;7.674;2022-09-03T08:41:02;5.63;;;1.38;;
11743;SDS011;5929;51.906;7.674;2022-09-03T08:43:31;5.25;;;1.30;;
11743;SDS011;5929;51.906;7.674;2022-09-03T08:46:13;5.78;;;1.02;;
11743;SDS011;5929;51.906;7.674;2022-09-03T08:48:41;3.22;;;1.00;;
11743;SDS011;5929;51.906;7.674;2022-09-03T08:51:09;5.75;;;1.35;;
11743;SDS011;5929;51.906;7.674;2022-09-03T08:53:40;5.30;;;1.20;;
11743;SDS011;5929;51.906;7.674;2022-09-03T08:56:12;5.97;;;1.05;;
11743;SDS011;5929;51.906;7.674;2022-09-03T08:58:47;2.13;;;0.73;;
11743;SDS011;5929;51.906;7.674;2022-09-03T09:01:15;4.88;;;1.10;;
11743;SDS011;5929;51.906;7.674;2022-09-03T09:03:57;4.88;;;0.98;;
11743;SDS011;5929;51.906;7.674;2022-09-03T09:06:38;4.30;;;1.17;;
11743;SDS011;5929;51.906;7.674;2022-09-03T09:09:14;3.05;;;1.25;;
11743;SDS011;5929;51.906;7.674;2022-09-03T09:12:00;5.53;;;1.40;;
11743;SDS011;5929;51.906;7.674;2022-09-03T09:14:37;2.47;;;0.90;;
11743;SDS011;5929;51.906;7.674;2022-09-03T09:17:17;2.72;;;0.90;;
11743;SDS011;5929;51.906;7.674;2022-09-03T09:19:58;3.28;;;1.02;;
11743;SDS011;5929;51.906;7.674;2022-09-03T09:22:37;2.85;;;1.08;;
11743;SDS011;5929;51.906;7.674;2022-09-03T09:25:07;4.63;;;1.20;;
11743;SDS011;5929;51.906;7.674;2022-09-03T09:27:40;2.78;;;0.90;;
11743;SDS011;5929;51.906;7.674;2022-09-03T09:30:14;3.83;;;1.25;;
11743;SDS011;5929;51.906;7.674;2022-09-03T09:32:42;3.03;;;0.85;;
11743;SDS011;5929;51.906;7.674;2022-09-03T09:35:11;4.25;;;1.17;;
11743;SDS011;5929;51.906;7.674;2022-09-03T09:37:47;5.45;;;1.02;;
11743;SDS011;5929;51.906;7.674;2022-09-03T09:40:25;2.17;;;0.80;;
11743;SDS011;5929;51.906;7.674;2022-09-03T09:43:03;4.15;;;1.10;;
11743;SDS011;5929;51.906;7.674;2022-09-03T09:45:35;3.92;;;0.98;;
11743;SDS011;5929;51.906;7.674;2022-09-03T09:48:07;3.85;;;0.93;;
11743;SDS011;5929;51.906;7.674;2022-09-03T09:50:38;3.40;;;1.08;;
11743;SDS011;5929;51.906;7.674;2022-09-03T09:53:08;5.35;;;1.10;;
11743;SDS011;5929;51.906;7.674;2022-09-03T09:55:50;2.65;;;0.80;;
11743;SDS011;5929;51.906;7.674;2022-09-03T09:58:19;3.55;;;1.20;;
11743;SDS011;5929;51.906;7.674;2022-09-03T10:00:57;6.45;;;1.20;;
11743;SDS011;5929;51.906;7.674;2022-09-03T10:03:27;3.03;;;1.00;;
11743;SDS011;5929;51.906;7.674;2022-09-03T10:06:00;3.63;;;1.20;;
11743;SDS011;5929;51.906;7.674;2022-09-03T10:08:52;3.38;;;0.73;;
11743;SDS011;5929;51.906;7.674;2022-09-03T10:11:30;4.07;;;1.02;;
11743;SDS011;5929;51.906;7.674;2022-09-03T10:14:01;4.30;;;1.17;;
11743;SDS011;5929;51.906;7.674;2022-09-03T10:16:30;3.55;;;1.15;;
11743;SDS011;5929;51.906;7.674;2022-09-03T10:19:05;6.05;;;1.48;;
11743;SDS011;5929;51.906;7.674;2022-09-03T10:21:38;3.90;;;1.00;;
11743;SDS011;5929;51.906;7.674;2022-09-03T10:24:18;3.17;;;1.00;;
11743;SDS011;5929;51.906;7.674;2022-09-03T10:27:06;4.40;;;1.13;;
11743;SDS011;5929;51.906;7.674;2022-09-03T10:29:36;4.55;;;1.20;;
11743;SDS011;5929;51.906;7.674;2022-09-03T10:32:18;3.22;;;1.00;;
11743;SDS011;5929;51.906;7.674;2022-09-03T10:34:58;5.03;;;1.20;;
11743;SDS011;5929;51.906;7.674;2022-09-03T10:37:36;4.22;;;1.13;;
11743;SDS011;5929;51.906;7.674;2022-09-03T10:40:20;5.78;;;1.33;;
11743;SDS011;5929;51.906;7.674;2022-09-03T10:42:59;5.40;;;1.20;;
11743;SDS011;5929;51.906;7.674;2022-09-03T10:45:40;3.75;;;1.00;;
11743;SDS011;5929;51.906;7.674;2022-09-03T10:48:15;4.38;;;0.90;;
11743;SDS011;5929;51.906;7.674;2022-09-03T10:51:03;5.10;;;1.27;;
11743;SDS011;5929;51.906;7.674;2022-09-03T10:53:41;3.38;;;1.08;;
11743;SDS011;5929;51.906;7.674;2022-09-03T10:56:35;3.45;;;1.08;;
11743;SDS011;5929;51.906;7.674;2022-09-03T10:59:24;6.43;;;1.17;;
11743;SDS011;5929;51.906;7.674;2022-09-03T11:02:03;2.33;;;0.93;;
11743;SDS011;5929;51.906;7.674;2022-09-03T11:04:44;2.58;;;0.80;;
11743;SDS011;5929;51.906;7.674;2022-09-03T11:07:16;4.10;;;1.27;;
11743;SDS011;5929;51.906;7.674;2022-09-03T11:09:49;3.90;;;1.00;;
11743;SDS011;5929;51.906;7.674;2022-09-03T11:12:25;3.53;;;1.23;;
11743;SDS011;5929;51.906;7.674;2022-09-03T11:14:58;2.90;;;1.10;;
11743;SDS011;5929;51.906;7.674;2022-09-03T11:17:31;4.10;;;1.40;;
11743;SDS011;5929;51.906;7.674;2022-09-03T11:20:04;3.50;;;1.05;;
11743;SDS011;5929;51.906;7.674;2022-09-03T11:22:40;5.43;;;1.10;;
11743;SDS011;5929;51.906;7.674;2022-09-03T11:25:09;4.80;;;1.23;;
11743;SDS011;5929;51.906;7.674;2022-09-03T11:27:47;3.55;;;0.70;;
11743;SDS011;5929;51.906;7.674;2022-09-03T11:30:23;2.72;;;1.00;;
11743;SDS011;5929;51.906;7.674;2022-09-03T11:32:55;3.90;;;1.00;;
11743;SDS011;5929;51.906;7.674;2022-09-03T11:35:27;4.40;;;1.00;;
11743;SDS011;5929;51.906;7.674;2022-09-03T11:38:03;3.85;;;1.10;;
11743;SDS011;5929;51.906;7.674;2022-09-03T11:40:37;6.20;;;1.20;;
11743;SDS011;5929;51.906;7.674;2022-09-03T11:43:12;3.60;;;1.13;;
11743;SDS011;5929;51.906;7.674;2022-09-03T11:46:00;5.68;;;1.00;;
11743;SDS011;5929;51.906;7.674;2022-09-03T11:48:32;5.35;;;1.20;;
11743;SDS011;5929;51.906;7.674;2022-09-03T11:51:03;4.05;;;1.05;;
11743;SDS011;5929;51.906;7.674;2022-09-03T11:53:52;3.30;;;0.93;;
11743;SDS011;5929;51.906;7.674;2022-09-03T11:56:20;3.42;;;1.20;;
11743;SDS011;5929;51.906;7.674;2022-09-03T11:58:56;5.80;;;0.93;;
11743;SDS011;5929;51.906;7.674;2022-09-03T12:01:26;3.50;;;0.90;;
11743;SDS011;5929;51.906;7.674;2022-09-03T12:03:57;4.13;;;1.02;;
11743;SDS011;5929;51.906;7.674;2022-09-03T12:09:29;4.88;;;1.08;;
11743;SDS011;5929;51.906;7.674;2022-09-03T12:12:19;4.38;;;1.05;;
11743;SDS011;5929;51.906;7.674;2022-09-03T12:15:13;4.95;;;1.00;;
11743;SDS011;5929;51.906;7.674;2022-09-03T12:17:49;3.55;;;0.90;;
11743;SDS011;5929;51.906;7.674;2022-09-03T12:20:42;3.80;;;1.10;;
11743;SDS011;5929;51.906;7.674;2022-09-03T12:23:09;5.00;;;1.20;;
11743;SDS011;5929;51.906;7.674;2022-09-03T12:25:41;5.20;;;1.02;;
11743;SDS011;5929;51.906;7.674;2022-09-03T12:28:11;3.17;;;1.00;;
11743;SDS011;5929;51.906;7.674;2022-09-03T12:30:48;3.03;;;0.80;;
11743;SDS011;5929;51.906;7.674;2022-09-03T12:33:17;4.75;;;0.98;;
11743;SDS011;5929;51.906;7.674;2022-09-03T12:35:54;4.47;;;1.20;;
11743;SDS011;5929;51.906;7.674;2022-09-03T12:38:22;3.53;;;1.10;;
11743;SDS011;5929;51.906;7.674;2022-09-03T12:40:49;4.07;;;1.00;;
11743;SDS011;5929;51.906;7.674;2022-09-03T12:43:17;5.93;;;1.20;;
11743;SDS011;5929;51.906;7.674;2022-09-03T12:45:45;2.85;;;1.10;;
11743;SDS011;5929;51.906;7.674;2022-09-03T12:48:14;2.55;;;0.88;;
11743;SDS011;5929;51.906;7.674;2022-09-03T12:50:42;3.75;;;0.95;;
11743;SDS011;5929;51.906;7.674;2022-09-03T12:53:11;3.60;;;1.17;;
11743;SDS011;5929;51.906;7.674;2022-09-03T12:55:41;5.35;;;1.02;;
11743;SDS011;5929;51.906;7.674;2022-09-03T12:58:10;7.38;;;1.35;;
11743;SDS011;5929;51.906;7.674;2022-09-03T13:00:43;6.03;;;1.20;;
11743;SDS011;5929;51.906;7.674;2022-09-03T13:03:16;5.70;;;1.00;;
11743;SDS011;5929;51.906;7.674;2022-09-03T13:05:48;3.72;;;0.88;;
11743;SDS011;5929;51.906;7.674;2022-09-03T13:08:19;3.38;;;1.02;;
11743;SDS011;5929;51.906;7.674;2022-09-03T13:10:49;3.90;;;1.13;;
11743;SDS011;5929;51.906;7.674;2022-09-03T13:13:20;4.68;;;1.10;;
11743;SDS011;5929;51.906;7.674;2022-09-03T13:15:56;3.10;;;1.02;;
11743;SDS011;5929;51.906;7.674;2022-09-03T13:18:39;4.55;;;1.00;;
11743;SDS011;5929;51.906;7.674;2022-09-03T13:21:18;2.97;;;0.82;;
11743;SDS011;5929;51.906;7.674;2022-09-03T13:26:46;3.88;;;0.90;;
11743;SDS011;5929;51.906;7.674;2022-09-03T13:29:25;3.28;;;1.10;;
11743;SDS011;5929;51.906;7.674;2022-09-03T13:32:07;4.20;;;1.00;;
11743;SDS011;5929;51.906;7.674;2022-09-03T13:34:47;3.88;;;0.90;;
11743;SDS011;5929;51.906;7.674;2022-09-03T13:37:21;3.33;;;0.90;;
11743;SDS011;5929;51.906;7.674;2022-09-03T13:39:52;3.92;;;0.98;;
11743;SDS011;5929;51.906;7.674;2022-09-03T13:42:24;3.35;;;0.90;;
11743;SDS011;5929;51.906;7.674;2022-09-03T13:44:59;4.95;;;1.23;;
11743;SDS011;5929;51.906;7.674;2022-09-03T13:47:31;4.30;;;1.08;;
11743;SDS011;5929;51.906;7.674;2022-09-03T13:50:06;6.03;;;1.45;;
11743;SDS011;5929;51.906;7.674;2022-09-03T13:52:49;3.42;;;1.20;;
11743;SDS011;5929;51.906;7.674;2022-09-03T13:55:22;4.88;;;1.30;;
11743;SDS011;5929;51.906;7.674;2022-09-03T13:57:53;5.57;;;1.10;;
11743;SDS011;5929;51.906;7.674;2022-09-03T14:00:23;3.58;;;0.98;;
11743;SDS011;5929;51.906;7.674;2022-09-03T14:02:55;4.35;;;1.10;;
11743;SDS011;5929;51.906;7.674;2022-09-03T14:05:35;3.00;;;0.90;;
11743;SDS011;5929;51.906;7.674;2022-09-03T14:08:11;4.03;;;1.27;;
11743;SDS011;5929;51.906;7.674;2022-09-03T14:10:56;3.75;;;1.40;;
11743;SDS011;5929;51.906;7.674;2022-09-03T14:13:29;4.80;;;1.67;;
11743;SDS011;5929;51.906;7.674;2022-09-03T14:16:07;3.50;;;1.20;;
11743;SDS011;5929;51.906;7.674;2022-09-03T14:18:43;3.40;;;1.17;;
11743;SDS011;5929;51.906;7.674;2022-09-03T14:21:17;4.40;;;1.15;;
11743;SDS011;5929;51.906;7.674;2022-09-03T14:23:50;4.63;;;1.17;;
11743;SDS011;5929;51.906;7.674;2022-09-03T14:26:28;4.70;;;1.30;;
11743;SDS011;5929;51.906;7.674;2022-09-03T14:28:57;3.63;;;1.00;;
11743;SDS011;5929;51.906;7.674;2022-09-03T14:31:28;3.22;;;1.10;;
11743;SDS011;5929;51.906;7.674;2022-09-03T14:34:21;5.93;;;1.30;;
11743;SDS011;5929;51.906;7.674;2022-09-03T14:37:01;3.33;;;1.20;;
11743;SDS011;5929;51.906;7.674;2022-09-03T14:39:39;2.13;;;0.95;;
11743;SDS011;5929;51.906;7.674;2022-09-03T14:42:29;6.00;;;1.25;;
11743;SDS011;5929;51.906;7.674;2022-09-03T14:45:11;6.82;;;1.20;;
11743;SDS011;5929;51.906;7.674;2022-09-03T14:48:11;4.72;;;1.13;;
11743;SDS011;5929;51.906;7.674;2022-09-03T14:51:09;7.68;;;1.77;;
11743;SDS011;5929;51.906;7.674;2022-09-03T14:56:52;3.47;;;1.60;;
11743;SDS011;5929;51.906;7.674;2022-09-03T14:59:45;3.88;;;1.33;;
11743;SDS011;5929;51.906;7.674;2022-09-03T15:05:13;13.68;;;7.50;;
11743;SDS011;5929;51.906;7.674;2022-09-03T15:07:46;11.98;;;7.93;;
11743;SDS011;5929;51.906;7.674;2022-09-03T15:10:21;3.85;;;1.65;;
11743;SDS011;5929;51.906;7.674;2022-09-03T15:12:57;7.22;;;1.70;;
11743;SDS011;5929;51.906;7.674;2022-09-03T15:15:34;5.55;;;2.33;;
11743;SDS011;5929;51.906;7.674;2022-09-03T15:18:16;5.18;;;2.78;;
11743;SDS011;5929;51.906;7.674;2022-09-03T15:20:51;8.45;;;2.90;;
11743;SDS011;5929;51.906;7.674;2022-09-03T15:23:22;3.78;;;1.23;;
11743;SDS011;5929;51.906;7.674;2022-09-03T15:26:07;5.68;;;1.73;;
11743;SDS011;5929;51.906;7.674;2022-09-03T15:28:53;7.43;;;2.08;;
11743;SDS011;5929;51.906;7.674;2022-09-03T15:31:32;5.32;;;1.83;;
11743;SDS011;5929;51.906;7.674;2022-09-03T15:34:11;8.60;;;1.70;;
11743;SDS011;5929;51.906;7.674;2022-09-03T15:36:50;9.10;;;3.85;;
11743;SDS011;5929;51.906;7.674;2022-09-03T15:39:21;6.20;;;3.40;;
11743;SDS011;5929;51.906;7.674;2022-09-03T15:41:51;5.47;;;2.40;;
11743;SDS011;5929;51.906;7.674;2022-09-03T15:44:23;6.82;;;2.15;;
11743;SDS011;5929;51.906;7.674;2022-09-03T15:46:52;7.32;;;2.92;;
11743;SDS011;5929;51.906;7.674;2022-09-03T15:49:25;4.47;;;1.60;;